sensor_id;sensor_type;location;lat;lon;timestamp;temperature;humidity
4985;DHT22;2509;49.902;8.600;2023-07-16T00:01:38;19.70;99.90
4985;DHT22;2509;49.902;8.600;2023-07-16T00:04:40;19.60;99.90
4985;DHT22;2509;49.902;8.600;2023-07-16T00:07:41;19.60;99.90
4985;DHT22;2509;49.902;8.600;2023-07-16T00:10:43;19.60;99.90
4985;DHT22;2509;49.902;8.600;2023-07-16T00:13:45;19.60;99.90
4985;DHT22;2509;49.902;8.600;2023-07-16T00:16:49;19.60;99.90
4985;DHT22;2509;49.902;8.600;2023-07-16T00:19:51;19.60;99.90
4985;DHT22;2509;49.902;8.600;2023-07-16T00:22:53;19.50;99.90
4985;DHT22;2509;49.902;8.600;2023-07-16T00:25:55;19.40;99.90
4985;DHT22;2509;49.902;8.600;2023-07-16T00:28:57;19.40;99.90
4985;DHT22;2509;49.902;8.600;2023-07-16T00:32:00;19.40;99.90
4985;DHT22;2509;49.902;8.600;2023-07-16T00:35:02;19.30;99.90
4985;DHT22;2509;49.902;8.600;2023-07-16T00:38:03;19.30;99.90
4985;DHT22;2509;49.902;8.600;2023-07-16T00:41:05;19.20;99.90
4985;DHT22;2509;49.902;8.600;2023-07-16T00:44:07;19.10;99.90
4985;DHT22;2509;49.902;8.600;2023-07-16T00:47:10;19.10;99.90
4985;DHT22;2509;49.902;8.600;2023-07-16T00:50:13;19.00;99.90
4985;DHT22;2509;49.902;8.600;2023-07-16T00:53:15;19.00;99.90
4985;DHT22;2509;49.902;8.600;2023-07-16T00:56:18;18.90;99.90
4985;DHT22;2509;49.902;8.600;2023-07-16T00:59:20;18.80;99.90
4985;DHT22;2509;49.902;8.600;2023-07-16T01:02:23;18.80;99.90
4985;DHT22;2509;49.902;8.600;2023-07-16T01:05:27;18.80;99.90
4985;DHT22;2509;49.902;8.600;2023-07-16T01:08:40;18.80;99.90
4985;DHT22;2509;49.902;8.600;2023-07-16T01:11:43;18.70;99.90
4985;DHT22;2509;49.902;8.600;2023-07-16T01:14:45;18.70;99.90
4985;DHT22;2509;49.902;8.600;2023-07-16T01:17:48;18.80;99.90
4985;DHT22;2509;49.902;8.600;2023-07-16T01:20:50;18.80;99.90
4985;DHT22;2509;49.902;8.600;2023-07-16T01:27:46;18.60;99.90
4985;DHT22;2509;49.902;8.600;2023-07-16T01:30:52;18.60;99.90
4985;DHT22;2509;49.902;8.600;2023-07-16T01:33:56;18.60;99.90
4985;DHT22;2509;49.902;8.600;2023-07-16T01:36:58;18.50;99.90
4985;DHT22;2509;49.902;8.600;2023-07-16T01:40:01;18.40;99.90
4985;DHT22;2509;49.902;8.600;2023-07-16T01:43:03;18.40;99.90
4985;DHT22;2509;49.902;8.600;2023-07-16T01:46:06;18.40;99.90
4985;DHT22;2509;49.902;8.600;2023-07-16T01:49:08;18.30;99.90
4985;DHT22;2509;49.902;8.600;2023-07-16T01:52:09;18.30;99.90
4985;DHT22;2509;49.902;8.600;2023-07-16T01:55:11;18.20;99.90
4985;DHT22;2509;49.902;8.600;2023-07-16T01:58:13;18.20;99.90
4985;DHT22;2509;49.902;8.600;2023-07-16T02:01:16;18.20;99.90
4985;DHT22;2509;49.902;8.600;2023-07-16T02:04:18;18.20;99.90
4985;DHT22;2509;49.902;8.600;2023-07-16T02:07:20;18.10;99.90
4985;DHT22;2509;49.902;8.600;2023-07-16T02:10:21;18.10;99.90
4985;DHT22;2509;49.902;8.600;2023-07-16T02:13:23;18.00;99.90
4985;DHT22;2509;49.902;8.600;2023-07-16T02:16:26;18.00;99.90
4985;DHT22;2509;49.902;8.600;2023-07-16T02:19:28;18.00;99.90
4985;DHT22;2509;49.902;8.600;2023-07-16T02:22:29;18.00;99.90
4985;DHT22;2509;49.902;8.600;2023-07-16T02:25:32;18.00;99.90
4985;DHT22;2509;49.902;8.600;2023-07-16T02:28:34;18.10;99.90
4985;DHT22;2509;49.902;8.600;2023-07-16T02:31:37;18.10;99.90
4985;DHT22;2509;49.902;8.600;2023-07-16T02:34:38;18.10;99.90
4985;DHT22;2509;49.902;8.600;2023-07-16T02:37:40;18.10;99.90
4985;DHT22;2509;49.902;8.600;2023-07-16T02:40:43;18.10;99.90
4985;DHT22;2509;49.902;8.600;2023-07-16T02:43:46;18.10;99.90
4985;DHT22;2509;49.902;8.600;2023-07-16T02:46:49;18.00;99.90
4985;DHT22;2509;49.902;8.600;2023-07-16T02:49:51;18.00;99.90
4985;DHT22;2509;49.902;8.600;2023-07-16T02:52:53;18.10;99.90
4985;DHT22;2509;49.902;8.600;2023-07-16T02:55:55;18.10;99.90
4985;DHT22;2509;49.902;8.600;2023-07-16T02:58:57;18.10;99.90
4985;DHT22;2509;49.902;8.600;2023-07-16T03:02:00;18.10;99.90
4985;DHT22;2509;49.902;8.600;2023-07-16T03:05:02;18.10;99.90
4985;DHT22;2509;49.902;8.600;2023-07-16T03:08:04;18.10;99.90
4985;DHT22;2509;49.902;8.600;2023-07-16T03:11:06;18.10;99.90
4985;DHT22;2509;49.902;8.600;2023-07-16T03:14:07;18.10;99.90
4985;DHT22;2509;49.902;8.600;2023-07-16T03:17:11;18.10;99.90
4985;DHT22;2509;49.902;8.600;2023-07-16T03:20:12;18.00;99.90
4985;DHT22;2509;49.902;8.600;2023-07-16T03:23:14;18.00;99.90
4985;DHT22;2509;49.902;8.600;2023-07-16T03:26:16;18.00;99.90
4985;DHT22;2509;49.902;8.600;2023-07-16T03:29:18;17.90;99.90
4985;DHT22;2509;49.902;8.600;2023-07-16T03:32:21;17.90;99.90
4985;DHT22;2509;49.902;8.600;2023-07-16T03:35:22;17.80;99.90
4985;DHT22;2509;49.902;8.600;2023-07-16T03:38:24;17.80;99.90
4985;DHT22;2509;49.902;8.600;2023-07-16T03:41:26;17.70;99.90
4985;DHT22;2509;49.902;8.600;2023-07-16T03:44:28;17.70;99.90
4985;DHT22;2509;49.902;8.600;2023-07-16T03:47:31;17.70;99.90
4985;DHT22;2509;49.902;8.600;2023-07-16T03:50:33;17.70;99.90
4985;DHT22;2509;49.902;8.600;2023-07-16T03:53:35;17.60;99.90
4985;DHT22;2509;49.902;8.600;2023-07-16T03:56:37;17.60;99.90
4985;DHT22;2509;49.902;8.600;2023-07-16T03:59:39;17.60;99.90
4985;DHT22;2509;49.902;8.600;2023-07-16T04:02:42;17.60;99.90
4985;DHT22;2509;49.902;8.600;2023-07-16T04:05:43;17.60;99.90
4985;DHT22;2509;49.902;8.600;2023-07-16T04:08:45;17.60;99.90
4985;DHT22;2509;49.902;8.600;2023-07-16T04:11:47;17.50;99.90
4985;DHT22;2509;49.902;8.600;2023-07-16T04:14:48;17.50;99.90
4985;DHT22;2509;49.902;8.600;2023-07-16T04:17:52;17.50;99.90
4985;DHT22;2509;49.902;8.600;2023-07-16T04:20:53;17.50;99.90
4985;DHT22;2509;49.902;8.600;2023-07-16T04:23:55;17.50;99.90
4985;DHT22;2509;49.902;8.600;2023-07-16T04:26:58;17.50;99.90
4985;DHT22;2509;49.902;8.600;2023-07-16T04:29:59;17.50;99.90
4985;DHT22;2509;49.902;8.600;2023-07-16T04:33:03;17.50;99.90
4985;DHT22;2509;49.902;8.600;2023-07-16T04:36:04;17.50;99.90
4985;DHT22;2509;49.902;8.600;2023-07-16T04:39:06;17.50;99.90
4985;DHT22;2509;49.902;8.600;2023-07-16T04:42:08;17.50;99.90
4985;DHT22;2509;49.902;8.600;2023-07-16T04:45:10;17.50;99.90
4985;DHT22;2509;49.902;8.600;2023-07-16T04:48:13;17.50;99.90
4985;DHT22;2509;49.902;8.600;2023-07-16T04:51:14;17.50;99.90
4985;DHT22;2509;49.902;8.600;2023-07-16T04:54:16;17.50;99.90
4985;DHT22;2509;49.902;8.600;2023-07-16T04:57:18;17.60;99.90
4985;DHT22;2509;49.902;8.600;2023-07-16T05:00:20;17.60;99.90
4985;DHT22;2509;49.902;8.600;2023-07-16T05:03:23;17.60;99.90
4985;DHT22;2509;49.902;8.600;2023-07-16T05:06:25;17.60;99.90
4985;DHT22;2509;49.902;8.600;2023-07-16T05:09:26;17.70;99.90
4985;DHT22;2509;49.902;8.600;2023-07-16T05:12:28;17.70;99.90
4985;DHT22;2509;49.902;8.600;2023-07-16T05:15:31;17.70;99.90
4985;DHT22;2509;49.902;8.600;2023-07-16T05:18:34;17.70;99.90
4985;DHT22;2509;49.902;8.600;2023-07-16T05:21:36;17.80;99.90
4985;DHT22;2509;49.902;8.600;2023-07-16T05:24:38;17.80;99.90
4985;DHT22;2509;49.902;8.600;2023-07-16T05:27:40;17.80;99.90
4985;DHT22;2509;49.902;8.600;2023-07-16T05:30:42;17.80;99.90
4985;DHT22;2509;49.902;8.600;2023-07-16T05:33:45;17.80;99.90
4985;DHT22;2509;49.902;8.600;2023-07-16T05:36:46;17.90;99.90
4985;DHT22;2509;49.902;8.600;2023-07-16T05:39:48;17.90;99.90
4985;DHT22;2509;49.902;8.600;2023-07-16T05:42:50;18.00;99.90
4985;DHT22;2509;49.902;8.600;2023-07-16T05:45:51;18.10;99.90
4985;DHT22;2509;49.902;8.600;2023-07-16T05:48:55;18.10;99.90
4985;DHT22;2509;49.902;8.600;2023-07-16T05:51:56;18.10;99.90
4985;DHT22;2509;49.902;8.600;2023-07-16T05:54:58;18.10;99.90
4985;DHT22;2509;49.902;8.600;2023-07-16T05:58:00;18.20;99.90
4985;DHT22;2509;49.902;8.600;2023-07-16T06:01:01;18.20;99.90
4985;DHT22;2509;49.902;8.600;2023-07-16T06:04:05;18.30;99.90
4985;DHT22;2509;49.902;8.600;2023-07-16T06:07:06;18.30;99.90
4985;DHT22;2509;49.902;8.600;2023-07-16T06:10:09;18.40;99.90
4985;DHT22;2509;49.902;8.600;2023-07-16T06:13:10;18.40;99.90
4985;DHT22;2509;49.902;8.600;2023-07-16T06:16:12;18.50;99.90
4985;DHT22;2509;49.902;8.600;2023-07-16T06:19:15;18.50;99.90
4985;DHT22;2509;49.902;8.600;2023-07-16T06:22:17;18.60;99.90
4985;DHT22;2509;49.902;8.600;2023-07-16T06:25:19;18.70;99.90
4985;DHT22;2509;49.902;8.600;2023-07-16T06:28:21;18.80;99.90
4985;DHT22;2509;49.902;8.600;2023-07-16T06:31:22;18.80;99.90
4985;DHT22;2509;49.902;8.600;2023-07-16T06:34:25;18.90;99.90
4985;DHT22;2509;49.902;8.600;2023-07-16T06:37:27;19.00;99.90
4985;DHT22;2509;49.902;8.600;2023-07-16T06:40:29;19.00;99.90
4985;DHT22;2509;49.902;8.600;2023-07-16T06:43:31;19.10;99.90
4985;DHT22;2509;49.902;8.600;2023-07-16T06:46:33;19.20;99.90
4985;DHT22;2509;49.902;8.600;2023-07-16T06:49:36;19.40;99.90
4985;DHT22;2509;49.902;8.600;2023-07-16T06:52:37;19.50;99.90
4985;DHT22;2509;49.902;8.600;2023-07-16T06:55:39;19.60;99.90
4985;DHT22;2509;49.902;8.600;2023-07-16T06:58:41;19.60;99.90
4985;DHT22;2509;49.902;8.600;2023-07-16T07:01:43;19.70;99.90
4985;DHT22;2509;49.902;8.600;2023-07-16T07:04:46;19.80;99.90
4985;DHT22;2509;49.902;8.600;2023-07-16T07:07:47;19.90;99.90
4985;DHT22;2509;49.902;8.600;2023-07-16T07:10:49;20.00;99.90
4985;DHT22;2509;49.902;8.600;2023-07-16T07:13:52;20.10;99.90
4985;DHT22;2509;49.902;8.600;2023-07-16T07:16:54;20.10;99.90
4985;DHT22;2509;49.902;8.600;2023-07-16T07:19:57;20.00;99.90
4985;DHT22;2509;49.902;8.600;2023-07-16T07:22:59;20.00;99.90
4985;DHT22;2509;49.902;8.600;2023-07-16T07:26:03;20.10;99.90
4985;DHT22;2509;49.902;8.600;2023-07-16T07:29:04;20.30;99.90
4985;DHT22;2509;49.902;8.600;2023-07-16T07:32:07;20.50;99.90
4985;DHT22;2509;49.902;8.600;2023-07-16T07:35:10;20.40;99.90
4985;DHT22;2509;49.902;8.600;2023-07-16T07:38:12;20.40;99.90
4985;DHT22;2509;49.902;8.600;2023-07-16T07:41:14;20.40;99.90
4985;DHT22;2509;49.902;8.600;2023-07-16T07:44:15;20.40;99.90
4985;DHT22;2509;49.902;8.600;2023-07-16T07:47:17;20.40;99.90
4985;DHT22;2509;49.902;8.600;2023-07-16T07:50:20;20.50;99.90
4985;DHT22;2509;49.902;8.600;2023-07-16T07:53:22;20.50;99.90
4985;DHT22;2509;49.902;8.600;2023-07-16T07:56:24;20.50;99.90
4985;DHT22;2509;49.902;8.600;2023-07-16T07:59:26;20.50;99.90
4985;DHT22;2509;49.902;8.600;2023-07-16T08:02:27;20.60;99.90
4985;DHT22;2509;49.902;8.600;2023-07-16T08:05:31;20.60;99.90
4985;DHT22;2509;49.902;8.600;2023-07-16T08:08:33;20.50;99.90
4985;DHT22;2509;49.902;8.600;2023-07-16T08:11:35;20.60;99.90
4985;DHT22;2509;49.902;8.600;2023-07-16T08:14:37;20.60;99.90
4985;DHT22;2509;49.902;8.600;2023-07-16T08:17:39;20.50;99.90
4985;DHT22;2509;49.902;8.600;2023-07-16T08:20:42;20.60;99.90
4985;DHT22;2509;49.902;8.600;2023-07-16T08:23:43;20.60;99.90
4985;DHT22;2509;49.902;8.600;2023-07-16T08:26:45;20.80;99.90
4985;DHT22;2509;49.902;8.600;2023-07-16T08:29:47;20.90;99.90
4985;DHT22;2509;49.902;8.600;2023-07-16T08:32:48;21.10;99.90
4985;DHT22;2509;49.902;8.600;2023-07-16T08:35:51;21.20;99.90
4985;DHT22;2509;49.902;8.600;2023-07-16T08:38:53;21.40;99.90
4985;DHT22;2509;49.902;8.600;2023-07-16T08:41:55;21.70;99.90
4985;DHT22;2509;49.902;8.600;2023-07-16T08:44:57;21.90;99.90
4985;DHT22;2509;49.902;8.600;2023-07-16T08:47:59;22.10;99.90
4985;DHT22;2509;49.902;8.600;2023-07-16T08:51:03;22.30;99.90
4985;DHT22;2509;49.902;8.600;2023-07-16T08:54:05;22.50;99.90
4985;DHT22;2509;49.902;8.600;2023-07-16T08:57:08;22.70;99.90
4985;DHT22;2509;49.902;8.600;2023-07-16T09:00:11;22.70;99.90
4985;DHT22;2509;49.902;8.600;2023-07-16T09:03:14;22.90;99.90
4985;DHT22;2509;49.902;8.600;2023-07-16T09:06:18;23.00;99.90
4985;DHT22;2509;49.902;8.600;2023-07-16T09:09:21;23.10;99.90
4985;DHT22;2509;49.902;8.600;2023-07-16T09:12:23;23.30;99.90
4985;DHT22;2509;49.902;8.600;2023-07-16T09:15:27;23.10;99.90
4985;DHT22;2509;49.902;8.600;2023-07-16T09:18:29;23.20;99.90
4985;DHT22;2509;49.902;8.600;2023-07-16T09:24:36;22.90;99.90
4985;DHT22;2509;49.902;8.600;2023-07-16T09:27:37;23.10;99.90
4985;DHT22;2509;49.902;8.600;2023-07-16T09:30:39;23.50;99.90
4985;DHT22;2509;49.902;8.600;2023-07-16T09:33:41;23.80;99.90
4985;DHT22;2509;49.902;8.600;2023-07-16T09:36:43;23.80;99.90
4985;DHT22;2509;49.902;8.600;2023-07-16T09:39:46;23.90;99.90
4985;DHT22;2509;49.902;8.600;2023-07-16T09:42:48;24.00;99.90
4985;DHT22;2509;49.902;8.600;2023-07-16T09:45:51;24.10;99.90
4985;DHT22;2509;49.902;8.600;2023-07-16T09:48:52;24.30;99.90
4985;DHT22;2509;49.902;8.600;2023-07-16T09:51:56;24.30;99.70
4985;DHT22;2509;49.902;8.600;2023-07-16T09:55:02;24.10;99.90
4985;DHT22;2509;49.902;8.600;2023-07-16T09:58:07;23.90;99.90
4985;DHT22;2509;49.902;8.600;2023-07-16T10:01:09;23.90;99.90
4985;DHT22;2509;49.902;8.600;2023-07-16T10:04:12;23.90;99.50
4985;DHT22;2509;49.902;8.600;2023-07-16T10:07:21;24.10;99.90
4985;DHT22;2509;49.902;8.600;2023-07-16T10:10:38;24.20;99.90
4985;DHT22;2509;49.902;8.600;2023-07-16T10:13:40;24.10;99.90
4985;DHT22;2509;49.902;8.600;2023-07-16T10:16:47;24.30;99.90
4985;DHT22;2509;49.902;8.600;2023-07-16T10:19:56;24.60;99.60
4985;DHT22;2509;49.902;8.600;2023-07-16T10:23:09;25.00;99.90
4985;DHT22;2509;49.902;8.600;2023-07-16T10:26:15;24.80;99.90
4985;DHT22;2509;49.902;8.600;2023-07-16T10:29:17;24.80;99.90
4985;DHT22;2509;49.902;8.600;2023-07-16T10:32:19;24.90;98.20
4985;DHT22;2509;49.902;8.600;2023-07-16T10:35:21;24.90;95.00
4985;DHT22;2509;49.902;8.600;2023-07-16T10:38:23;25.00;96.10
4985;DHT22;2509;49.902;8.600;2023-07-16T10:41:27;25.40;96.50
4985;DHT22;2509;49.902;8.600;2023-07-16T10:44:29;25.30;99.90
4985;DHT22;2509;49.902;8.600;2023-07-16T10:47:33;25.30;93.10
4985;DHT22;2509;49.902;8.600;2023-07-16T10:50:35;25.60;93.70
4985;DHT22;2509;49.902;8.600;2023-07-16T10:53:41;25.70;97.20
4985;DHT22;2509;49.902;8.600;2023-07-16T10:56:44;25.30;90.40
4985;DHT22;2509;49.902;8.600;2023-07-16T10:59:48;25.30;91.50
4985;DHT22;2509;49.902;8.600;2023-07-16T11:02:53;25.60;92.70
4985;DHT22;2509;49.902;8.600;2023-07-16T11:06:01;25.80;89.40
4985;DHT22;2509;49.902;8.600;2023-07-16T11:09:10;26.00;86.70
4985;DHT22;2509;49.902;8.600;2023-07-16T11:12:17;26.00;87.50
4985;DHT22;2509;49.902;8.600;2023-07-16T11:15:36;26.30;92.70
4985;DHT22;2509;49.902;8.600;2023-07-16T11:18:42;26.50;86.70
4985;DHT22;2509;49.902;8.600;2023-07-16T11:21:46;26.40;85.90
4985;DHT22;2509;49.902;8.600;2023-07-16T11:24:50;26.60;87.70
4985;DHT22;2509;49.902;8.600;2023-07-16T11:27:55;26.80;86.40
4985;DHT22;2509;49.902;8.600;2023-07-16T11:30:57;27.30;86.20
4985;DHT22;2509;49.902;8.600;2023-07-16T11:34:00;27.00;85.90
4985;DHT22;2509;49.902;8.600;2023-07-16T11:37:09;27.10;84.40
4985;DHT22;2509;49.902;8.600;2023-07-16T11:40:15;27.40;84.80
4985;DHT22;2509;49.902;8.600;2023-07-16T11:43:19;28.10;84.10
4985;DHT22;2509;49.902;8.600;2023-07-16T11:46:21;28.40;81.40
4985;DHT22;2509;49.902;8.600;2023-07-16T11:49:28;28.50;82.60
4985;DHT22;2509;49.902;8.600;2023-07-16T11:52:52;29.20;81.30
4985;DHT22;2509;49.902;8.600;2023-07-16T11:55:54;30.00;79.80
4985;DHT22;2509;49.902;8.600;2023-07-16T11:58:58;30.30;78.50
4985;DHT22;2509;49.902;8.600;2023-07-16T12:01:59;30.00;78.30
4985;DHT22;2509;49.902;8.600;2023-07-16T12:05:01;30.10;81.90
4985;DHT22;2509;49.902;8.600;2023-07-16T12:08:03;30.60;78.70
4985;DHT22;2509;49.902;8.600;2023-07-16T12:11:05;30.00;77.40
4985;DHT22;2509;49.902;8.600;2023-07-16T12:14:09;29.70;80.10
4985;DHT22;2509;49.902;8.600;2023-07-16T12:17:12;29.80;78.50
4985;DHT22;2509;49.902;8.600;2023-07-16T12:20:14;29.00;81.50
4985;DHT22;2509;49.902;8.600;2023-07-16T12:23:16;29.10;82.50
4985;DHT22;2509;49.902;8.600;2023-07-16T12:26:18;29.20;80.20
4985;DHT22;2509;49.902;8.600;2023-07-16T12:29:21;29.40;77.20
4985;DHT22;2509;49.902;8.600;2023-07-16T12:32:24;29.70;76.70
4985;DHT22;2509;49.902;8.600;2023-07-16T12:35:26;29.90;76.90
4985;DHT22;2509;49.902;8.600;2023-07-16T12:38:28;30.00;76.60
4985;DHT22;2509;49.902;8.600;2023-07-16T12:41:30;30.00;76.60
4985;DHT22;2509;49.902;8.600;2023-07-16T12:44:33;29.40;76.50
4985;DHT22;2509;49.902;8.600;2023-07-16T12:47:35;28.80;78.90
4985;DHT22;2509;49.902;8.600;2023-07-16T12:50:38;29.10;78.90
4985;DHT22;2509;49.902;8.600;2023-07-16T12:53:40;29.10;79.90
4985;DHT22;2509;49.902;8.600;2023-07-16T12:56:44;29.30;79.00
4985;DHT22;2509;49.902;8.600;2023-07-16T12:59:47;28.70;78.40
4985;DHT22;2509;49.902;8.600;2023-07-16T13:02:49;28.80;79.00
4985;DHT22;2509;49.902;8.600;2023-07-16T13:05:51;29.40;76.60
4985;DHT22;2509;49.902;8.600;2023-07-16T13:08:53;30.20;76.10
4985;DHT22;2509;49.902;8.600;2023-07-16T13:11:54;31.00;75.70
4985;DHT22;2509;49.902;8.600;2023-07-16T13:14:58;31.60;75.40
4985;DHT22;2509;49.902;8.600;2023-07-16T13:17:59;31.30;73.10
4985;DHT22;2509;49.902;8.600;2023-07-16T13:21:01;31.00;72.80
4985;DHT22;2509;49.902;8.600;2023-07-16T13:24:04;31.00;73.60
4985;DHT22;2509;49.902;8.600;2023-07-16T13:27:06;31.30;73.50
4985;DHT22;2509;49.902;8.600;2023-07-16T13:30:12;31.20;73.50
4985;DHT22;2509;49.902;8.600;2023-07-16T13:33:14;31.60;72.30
4985;DHT22;2509;49.902;8.600;2023-07-16T13:36:15;31.90;71.80
4985;DHT22;2509;49.902;8.600;2023-07-16T13:39:17;32.00;70.70
4985;DHT22;2509;49.902;8.600;2023-07-16T13:42:20;31.90;71.00
4985;DHT22;2509;49.902;8.600;2023-07-16T13:45:23;31.10;71.70
4985;DHT22;2509;49.902;8.600;2023-07-16T13:48:24;30.40;72.70
4985;DHT22;2509;49.902;8.600;2023-07-16T13:51:26;31.10;72.60
4985;DHT22;2509;49.902;8.600;2023-07-16T13:54:28;31.80;71.90
4985;DHT22;2509;49.902;8.600;2023-07-16T13:57:30;32.10;70.60
4985;DHT22;2509;49.902;8.600;2023-07-16T14:00:33;32.30;70.10
4985;DHT22;2509;49.902;8.600;2023-07-16T14:03:34;32.20;70.20
4985;DHT22;2509;49.902;8.600;2023-07-16T14:06:36;32.20;70.30
4985;DHT22;2509;49.902;8.600;2023-07-16T14:09:38;32.40;70.90
4985;DHT22;2509;49.902;8.600;2023-07-16T14:12:40;32.90;69.50
4985;DHT22;2509;49.902;8.600;2023-07-16T14:15:43;33.30;69.10
4985;DHT22;2509;49.902;8.600;2023-07-16T14:18:44;33.40;68.40
4985;DHT22;2509;49.902;8.600;2023-07-16T14:21:46;32.80;68.40
4985;DHT22;2509;49.902;8.600;2023-07-16T14:24:48;32.90;69.10
4985;DHT22;2509;49.902;8.600;2023-07-16T14:27:51;33.20;67.70
4985;DHT22;2509;49.902;8.600;2023-07-16T14:30:54;32.80;68.90
4985;DHT22;2509;49.902;8.600;2023-07-16T14:33:56;32.90;69.60
4985;DHT22;2509;49.902;8.600;2023-07-16T14:36:58;33.30;70.20
4985;DHT22;2509;49.902;8.600;2023-07-16T14:39:59;32.90;69.10
4985;DHT22;2509;49.902;8.600;2023-07-16T14:43:03;33.30;69.70
4985;DHT22;2509;49.902;8.600;2023-07-16T14:46:06;33.50;68.50
4985;DHT22;2509;49.902;8.600;2023-07-16T14:49:08;34.20;71.20
4985;DHT22;2509;49.902;8.600;2023-07-16T14:52:10;34.40;69.10
4985;DHT22;2509;49.902;8.600;2023-07-16T14:55:12;34.80;68.60
4985;DHT22;2509;49.902;8.600;2023-07-16T14:58:17;33.40;67.50
4985;DHT22;2509;49.902;8.600;2023-07-16T15:01:20;32.80;69.70
4985;DHT22;2509;49.902;8.600;2023-07-16T15:04:22;33.40;68.50
4985;DHT22;2509;49.902;8.600;2023-07-16T15:07:24;34.40;68.40
4985;DHT22;2509;49.902;8.600;2023-07-16T15:10:26;34.60;67.30
4985;DHT22;2509;49.902;8.600;2023-07-16T15:13:28;33.60;67.50
4985;DHT22;2509;49.902;8.600;2023-07-16T15:16:31;33.20;68.60
4985;DHT22;2509;49.902;8.600;2023-07-16T15:19:34;33.50;68.40
4985;DHT22;2509;49.902;8.600;2023-07-16T15:22:36;34.10;67.20
4985;DHT22;2509;49.902;8.600;2023-07-16T15:25:40;34.60;66.20
4985;DHT22;2509;49.902;8.600;2023-07-16T15:28:42;34.00;66.40
4985;DHT22;2509;49.902;8.600;2023-07-16T15:31:47;34.10;67.50
4985;DHT22;2509;49.902;8.600;2023-07-16T15:34:48;33.90;66.70
4985;DHT22;2509;49.902;8.600;2023-07-16T15:37:50;33.90;66.70
4985;DHT22;2509;49.902;8.600;2023-07-16T15:40:52;33.90;67.30
4985;DHT22;2509;49.902;8.600;2023-07-16T15:43:54;34.10;66.20
4985;DHT22;2509;49.902;8.600;2023-07-16T15:46:57;34.20;66.30
4985;DHT22;2509;49.902;8.600;2023-07-16T15:49:59;33.90;66.50
4985;DHT22;2509;49.902;8.600;2023-07-16T15:53:01;33.60;68.00
4985;DHT22;2509;49.902;8.600;2023-07-16T15:56:03;33.40;67.80
4985;DHT22;2509;49.902;8.600;2023-07-16T15:59:05;33.10;66.90
4985;DHT22;2509;49.902;8.600;2023-07-16T16:02:08;32.40;68.30
4985;DHT22;2509;49.902;8.600;2023-07-16T16:05:10;31.50;69.80
4985;DHT22;2509;49.902;8.600;2023-07-16T16:08:14;30.90;71.50
4985;DHT22;2509;49.902;8.600;2023-07-16T16:11:16;30.60;72.10
4985;DHT22;2509;49.902;8.600;2023-07-16T16:14:18;30.70;71.30
4985;DHT22;2509;49.902;8.600;2023-07-16T16:17:21;30.50;72.00
4985;DHT22;2509;49.902;8.600;2023-07-16T16:20:23;30.30;73.00
4985;DHT22;2509;49.902;8.600;2023-07-16T16:23:25;30.50;73.20
4985;DHT22;2509;49.902;8.600;2023-07-16T16:26:27;30.10;73.80
4985;DHT22;2509;49.902;8.600;2023-07-16T16:29:28;29.80;73.00
4985;DHT22;2509;49.902;8.600;2023-07-16T16:32:32;29.80;73.50
4985;DHT22;2509;49.902;8.600;2023-07-16T16:35:36;29.80;74.00
4985;DHT22;2509;49.902;8.600;2023-07-16T16:38:38;29.60;74.30
4985;DHT22;2509;49.902;8.600;2023-07-16T16:41:39;29.10;73.80
4985;DHT22;2509;49.902;8.600;2023-07-16T16:44:42;28.70;74.90
4985;DHT22;2509;49.902;8.600;2023-07-16T16:47:45;28.60;75.80
4985;DHT22;2509;49.902;8.600;2023-07-16T16:50:47;28.30;75.90
4985;DHT22;2509;49.902;8.600;2023-07-16T16:53:49;27.90;76.90
4985;DHT22;2509;49.902;8.600;2023-07-16T16:56:50;27.60;77.60
4985;DHT22;2509;49.902;8.600;2023-07-16T16:59:52;27.40;78.30
4985;DHT22;2509;49.902;8.600;2023-07-16T17:02:56;27.30;78.50
4985;DHT22;2509;49.902;8.600;2023-07-16T17:05:57;27.10;79.00
4985;DHT22;2509;49.902;8.600;2023-07-16T17:09:00;27.00;79.40
4985;DHT22;2509;49.902;8.600;2023-07-16T17:12:02;26.90;79.30
4985;DHT22;2509;49.902;8.600;2023-07-16T17:15:05;26.80;79.80
4985;DHT22;2509;49.902;8.600;2023-07-16T17:18:08;26.70;80.50
4985;DHT22;2509;49.902;8.600;2023-07-16T17:21:10;26.70;80.40
4985;DHT22;2509;49.902;8.600;2023-07-16T17:24:12;26.60;80.80
4985;DHT22;2509;49.902;8.600;2023-07-16T17:27:13;26.50;80.20
4985;DHT22;2509;49.902;8.600;2023-07-16T17:30:17;26.50;80.60
4985;DHT22;2509;49.902;8.600;2023-07-16T17:33:20;26.40;80.40
4985;DHT22;2509;49.902;8.600;2023-07-16T17:36:22;26.30;81.40
4985;DHT22;2509;49.902;8.600;2023-07-16T17:39:24;26.20;81.30
4985;DHT22;2509;49.902;8.600;2023-07-16T17:42:26;26.20;82.10
4985;DHT22;2509;49.902;8.600;2023-07-16T17:45:27;26.10;81.40
4985;DHT22;2509;49.902;8.600;2023-07-16T17:48:31;26.00;80.80
4985;DHT22;2509;49.902;8.600;2023-07-16T17:51:33;26.00;81.30
4985;DHT22;2509;49.902;8.600;2023-07-16T17:54:34;25.90;81.40
4985;DHT22;2509;49.902;8.600;2023-07-16T17:57:36;25.80;81.90
4985;DHT22;2509;49.902;8.600;2023-07-16T18:00:38;25.60;82.40
4985;DHT22;2509;49.902;8.600;2023-07-16T18:03:41;25.60;82.70
4985;DHT22;2509;49.902;8.600;2023-07-16T18:06:44;25.60;82.90
4985;DHT22;2509;49.902;8.600;2023-07-16T18:09:46;25.50;83.10
4985;DHT22;2509;49.902;8.600;2023-07-16T18:12:50;25.50;83.90
4985;DHT22;2509;49.902;8.600;2023-07-16T18:15:52;25.40;83.60
4985;DHT22;2509;49.902;8.600;2023-07-16T18:18:55;25.40;83.40
4985;DHT22;2509;49.902;8.600;2023-07-16T18:22:03;25.30;83.70
4985;DHT22;2509;49.902;8.600;2023-07-16T18:25:11;25.20;83.60
4985;DHT22;2509;49.902;8.600;2023-07-16T18:28:12;25.10;83.80
4985;DHT22;2509;49.902;8.600;2023-07-16T18:31:14;25.10;84.00
4985;DHT22;2509;49.902;8.600;2023-07-16T18:34:17;25.10;84.50
4985;DHT22;2509;49.902;8.600;2023-07-16T18:37:20;25.10;84.50
4985;DHT22;2509;49.902;8.600;2023-07-16T18:40:23;25.00;85.00
4985;DHT22;2509;49.902;8.600;2023-07-16T18:43:24;24.90;85.00
4985;DHT22;2509;49.902;8.600;2023-07-16T18:46:26;24.90;85.70
4985;DHT22;2509;49.902;8.600;2023-07-16T18:49:30;24.80;85.50
4985;DHT22;2509;49.902;8.600;2023-07-16T18:52:31;24.80;85.70
4985;DHT22;2509;49.902;8.600;2023-07-16T18:55:33;24.60;86.00
4985;DHT22;2509;49.902;8.600;2023-07-16T18:58:35;24.60;86.40
4985;DHT22;2509;49.902;8.600;2023-07-16T19:01:37;24.40;86.50
4985;DHT22;2509;49.902;8.600;2023-07-16T19:04:40;24.40;86.80
4985;DHT22;2509;49.902;8.600;2023-07-16T19:07:42;24.40;87.40
4985;DHT22;2509;49.902;8.600;2023-07-16T19:10:44;24.30;87.80
4985;DHT22;2509;49.902;8.600;2023-07-16T19:13:46;24.20;87.50
4985;DHT22;2509;49.902;8.600;2023-07-16T19:16:48;24.20;87.90
4985;DHT22;2509;49.902;8.600;2023-07-16T19:19:51;24.10;87.70
4985;DHT22;2509;49.902;8.600;2023-07-16T19:22:53;24.10;88.40
4985;DHT22;2509;49.902;8.600;2023-07-16T19:25:54;24.00;88.70
4985;DHT22;2509;49.902;8.600;2023-07-16T19:28:56;23.90;89.20
4985;DHT22;2509;49.902;8.600;2023-07-16T19:31:58;24.00;89.20
4985;DHT22;2509;49.902;8.600;2023-07-16T19:35:01;23.90;89.00
4985;DHT22;2509;49.902;8.600;2023-07-16T19:38:04;23.80;89.80
4985;DHT22;2509;49.902;8.600;2023-07-16T19:41:06;23.70;90.10
4985;DHT22;2509;49.902;8.600;2023-07-16T19:44:08;23.70;90.20
4985;DHT22;2509;49.902;8.600;2023-07-16T19:47:10;23.50;90.60
4985;DHT22;2509;49.902;8.600;2023-07-16T19:50:13;23.40;91.30
4985;DHT22;2509;49.902;8.600;2023-07-16T19:53:15;23.40;91.20
4985;DHT22;2509;49.902;8.600;2023-07-16T19:56:17;23.30;91.50
4985;DHT22;2509;49.902;8.600;2023-07-16T19:59:21;23.20;92.40